METAR Data
IDs: Format: Raw Decoded Include TAF

Data at: 1134 UTC 28 Sep 2021

METAR for:TJSJ (San Juan/Marin Intl, PR, US)
Text:TJSJ 281056Z 14003KT 10SM FEW028 SCT035 27/23 A2992 RMK AO2 SLP130 T02670233 $
Temperature: 26.7°C ( 80°F)
Dewpoint: 23.3°C ( 74°F) [RH = 82%]
Pressure (altimeter):29.92 inches Hg (1013.3 mb) [Sea level pressure: 1013.0 mb]
Winds:from the SE (140 degrees) at 3 MPH (3 knots; 1.5 m/s)
Visibility:10 or more sm (16+ km)
Ceiling:at least 12,000 feet AGL
Clouds: few clouds at 2800 feet AGL, scattered clouds at 3500 feet AGL
QC Flag:SOME DATA ABOVE MAY BE INACCURATE!!!"$" is an indication the sensor requires maintenance.